Time;durP1;ratioP1;P1;durP2;ratioP2;P2;SDS_P1;SDS_P2;PMS_P1;PMS_P2;Temp;Humidity;BMP_temperature;BMP_pressure;BME280_temperature;BME280_humidity;BME280_pressure;Samples;Min_cycle;Max_cycle;Signal;HPM_P1;HPM_P2
2023/05/14 06:00:40;;;;;;;;;;;;;;;;;;5698542;23;20388;-89
2023/05/14 06:03:06;;;;;;;;;;;;;;;;;;4896911;29;19924;-91
2023/05/14 06:05:31;;;;;;;;;;;;;;;;;;4898642;29;20383;-89
2023/05/14 06:07:56;;;;;;;;;;;;;;;;;;4898391;29;20051;-87
2023/05/14 06:10:21;;;;;;;;;;;;;;;;;;4896237;29;20308;-89
2023/05/14 06:12:47;;;;;;;;;;;;;;;;;;4906629;29;19923;-89
2023/05/14 06:15:13;;;;;;;;;;;;;;;;;;4917211;29;20030;-87
2023/05/14 06:17:39;;;;;;;;;;;;;;;;;;4917513;29;19934;-89
2023/05/14 06:20:04;;;;;;;;;;;;;;;;;;4916753;29;19923;-91
2023/05/14 06:22:30;;;;;;;;;;;;;;;;;;4914890;29;19949;-87
2023/05/14 06:24:56;;;;;;;;;;;;;;;;;;4916861;29;19986;-87
2023/05/14 06:27:21;;;;;;;;;;;;;;;;;;4916533;29;19958;-89
2023/05/14 06:29:46;;;;;;;;;;;;;;;;;;4910423;29;19928;-91
2023/05/14 06:32:14;;;;;;;;;;;;;;;;;;4903696;29;19923;-89
2023/05/14 06:34:39;;;;;;;;;;;;;;;;;;4917407;29;20009;-89
2023/05/14 06:37:05;;;;;;;;;;;;;;;;;;4916411;29;19966;-86
2023/05/14 06:39:31;;;;;;;;;;;;;;;;;;4917518;29;19923;-88
2023/05/14 06:41:56;;;;;;;;;;;;;;;;;;4909036;29;19927;-91
2023/05/14 06:44:22;;;;;;;;;;;;;;;;;;4879692;29;20010;-88
2023/05/14 06:46:47;;;;;;;;;;;;;;;;;;4873234;29;19930;-91
2023/05/14 06:49:12;;;;;;;;;;;;;;;;;;4873354;29;19927;-88
2023/05/14 06:51:37;;;;;;;;;;;;;;;;;;4873176;29;19935;-91
2023/05/14 06:54:03;;;;;;;;;;;;;;;;;;4874078;29;19932;-89
2023/05/14 06:56:29;;;;;;;;;;;;;;;;;;4874016;29;19928;-90
2023/05/14 06:58:54;;;;;;;;;;;;;;;;;;4873878;29;20365;-89
2023/05/14 07:01:19;;;;;;;;;;;;;;;;;;4871756;29;20740;-90
2023/05/14 07:03:45;;;;;;;;;;;;;;;;;;4872209;29;19943;-90
2023/05/14 07:06:10;;;;;;;;;;;;;;;;;;4870920;29;19931;-86
2023/05/14 07:08:35;;;;;;;;;;;;;;;;;;4869740;29;20345;-86
2023/05/14 07:11:00;;;;;;;;;;;;;;;;;;4870679;29;19976;-86
2023/05/14 07:13:27;;;;;;;;;;;;;;;;;;4897224;29;19945;-86
2023/05/14 07:15:54;;;;;;;;;;;;;;;;;;4908202;29;20021;-87
2023/05/14 07:18:20;;;;;;;;;;;;;;;;;;4908614;29;19928;-86
2023/05/14 07:20:45;;;;;;;;;;;;;;;;;;4908645;29;19932;-87
2023/05/14 07:23:10;;;;;;;;;;;;;;;;;;4908507;29;20094;-86
2023/05/14 07:25:35;;;;;;;;;;;;;;;;;;4908055;29;19930;-87
2023/05/14 07:28:01;;;;;;;;;;;;;;;;;;4903711;29;19927;-85
2023/05/14 07:30:26;;;;;;;;;;;;;;;;;;4886871;29;19930;-87
2023/05/14 07:32:51;;;;;;;;;;;;;;;;;;4889242;29;19939;-85
2023/05/14 07:35:17;;;;;;;;;;;;;;;;;;4890618;29;20542;-86
2023/05/14 07:37:42;;;;;;;;;;;;;;;;;;4900744;29;19937;-85
2023/05/14 07:40:07;;;;;;;;;;;;;;;;;;4888195;29;19927;-86
2023/05/14 07:42:33;;;;;;;;;;;;;;;;;;4890247;29;20404;-86
2023/05/14 07:44:58;;;;;;;;;;;;;;;;;;4894093;29;19930;-87
2023/05/14 07:47:23;;;;;;;;;;;;;;;;;;4892738;29;19970;-85
2023/05/14 07:49:52;;;;;;;;;;;;;;;;;;4905079;29;19982;-85
2023/05/14 07:52:18;;;;;;;;;;;;;;;;;;4928472;29;19969;-86
2023/05/14 07:54:43;;;;;;;;;;;;;;;;;;4935641;29;19923;-84
2023/05/14 07:57:08;;;;;;;;;;;;;;;;;;4921024;29;20403;-87
2023/05/14 07:59:34;;;;;;;;;;;;;;;;;;4913036;29;19974;-86
2023/05/14 08:01:59;;;;;;;;;;;;;;;;;;4891184;29;19974;-85
2023/05/14 08:04:25;;;;;;;;;;;;;;;;;;4878296;29;19927;-86
2023/05/14 08:06:50;;;;;;;;;;;;;;;;;;4887004;29;19939;-87
2023/05/14 08:09:16;;;;;;;;;;;;;;;;;;4877709;29;20355;-86
2023/05/14 08:11:41;;;;;;;;;;;;;;;;;;4875072;29;19948;-85
2023/05/14 08:14:06;;;;;;;;;;;;;;;;;;4891425;29;19928;-85
2023/05/14 08:16:32;;;;;;;;;;;;;;;;;;4887081;29;20047;-82
2023/05/14 08:18:57;;;;;;;;;;;;;;;;;;4881217;29;19931;-85
2023/05/14 08:21:22;;;;;;;;;;;;;;;;;;4892504;29;19923;-84
2023/05/14 08:23:47;;;;;;;;;;;;;;;;;;4888543;29;19923;-83
2023/05/14 08:26:13;;;;;;;;;;;;;;;;;;4885270;29;19975;-85
2023/05/14 08:28:38;;;;;;;;;;;;;;;;;;4898547;29;19926;-84
2023/05/14 08:31:03;;;;;;;;;;;;;;;;;;4892750;29;19928;-82
2023/05/14 08:33:28;;;;;;;;;;;;;;;;;;4879312;29;19975;-85
2023/05/14 08:35:55;;;;;;;;;;;;;;;;;;4884025;29;20416;-85
2023/05/14 08:38:20;;;;;;;;;;;;;;;;;;4880812;29;19949;-87
2023/05/14 08:40:56;;;;;;;;;;;;;;;;;;4892737;29;19927;-84
2023/05/14 08:43:24;;;;;;;;;;;;;;;;;;4886238;29;19932;-86
2023/05/14 08:45:50;;;;;;;;;;;;;;;;;;4887672;29;19955;-90
2023/05/14 08:48:16;;;;;;;;;;;;;;;;;;4887877;29;19973;-86
2023/05/14 08:50:42;;;;;;;;;;;;;;;;;;4898113;29;19990;-82
2023/05/14 08:53:08;;;;;;;;;;;;;;;;;;4884401;29;19932;-84
2023/05/14 08:55:33;;;;;;;;;;;;;;;;;;4880077;29;19931;-83
2023/05/14 08:57:58;;;;;;;;;;;;;;;;;;4886225;29;19980;-85
2023/05/14 09:00:25;;;;;;;;;;;;;;;;;;4890791;29;20340;-87
2023/05/14 09:02:51;;;;;;;;;;;;;;;;;;4891362;29;20345;-84
2023/05/14 09:05:17;;;;;;;;;;;;;;;;;;4893755;29;19941;-84
2023/05/14 09:07:43;;;;;;;;;;;;;;;;;;4879440;29;20328;-83
2023/05/14 09:10:08;;;;;;;;;;;;;;;;;;4879032;29;19924;-83
2023/05/14 09:12:34;;;;;;;;;;;;;;;;;;4892323;29;19935;-83
2023/05/14 09:15:01;;;;;;;;;;;;;;;;;;4886017;29;19930;-84
2023/05/14 09:17:27;;;;;;;;;;;;;;;;;;4887665;29;20254;-83
2023/05/14 09:19:52;;;;;;;;;;;;;;;;;;4888030;29;19966;-83
2023/05/14 09:22:18;;;;;;;;;;;;;;;;;;4883224;29;19930;-83
2023/05/14 09:24:43;;;;;;;;;;;;;;;;;;4879424;29;20361;-84
2023/05/14 09:27:13;;;;;;;;;;;;;;;;;;4878874;29;19935;-84
2023/05/14 09:29:39;;;;;;;;;;;;;;;;;;4875203;29;19929;-84
2023/05/14 09:32:06;;;;;;;;;;;;;;;;;;4889196;29;19927;-84
2023/05/14 09:34:33;;;;;;;;;;;;;;;;;;4891009;29;19997;-83
2023/05/14 09:37:02;;;;;;;;;;;;;;;;;;4894853;29;19947;-83
2023/05/14 09:39:28;;;;;;;;;;;;;;;;;;4887989;29;20407;-85
2023/05/14 09:41:54;;;;;;;;;;;;;;;;;;4887226;29;19923;-84
2023/05/14 09:44:20;;;;;;;;;;;;;;;;;;4881694;29;20010;-83
2023/05/14 09:46:45;;;;;;;;;;;;;;;;;;4896757;29;20493;-84
2023/05/14 09:49:11;;;;;;;;;;;;;;;;;;4880376;29;21458;-85
2023/05/14 09:51:36;;;;;;;;;;;;;;;;;;4885573;29;19932;-82
2023/05/14 09:54:02;;;;;;;;;;;;;;;;;;4881101;29;19924;-85
2023/05/14 09:56:27;;;;;;;;;;;;;;;;;;4877221;29;20011;-84
2023/05/14 09:58:53;;;;;;;;;;;;;;;;;;4898248;29;20348;-85
2023/05/14 10:01:19;;;;;;;;;;;;;;;;;;4898153;29;19930;-82
2023/05/14 10:03:45;;;;;;;;;;;;;;;;;;4896849;29;19923;-82
2023/05/14 10:06:12;;;;;;;;;;;;;;;;;;4905209;29;20014;-84
2023/05/14 10:08:40;;;;;;;;;;;;;;;;;;4901653;29;19992;-84
2023/05/14 10:11:07;;;;;;;;;;;;;;;;;;4914337;29;20248;-84
2023/05/14 10:13:37;;;;;;;;;;;;;;;;;;4910747;29;19918;-84
2023/05/14 10:16:08;;;;;;;;;;;;;;;;;;4905150;29;19948;-83
2023/05/14 10:18:38;;;;;;;;;;;;;;;;;;4902932;29;19934;-82
2023/05/14 10:21:06;;;;;;;;;;;;;;;;;;4907009;29;19931;-81
2023/05/14 10:23:32;;;;;;;;;;;;;;;;;;4912571;29;19950;-84
2023/05/14 10:25:58;;;;;;;;;;;;;;;;;;4908995;29;19924;-84
2023/05/14 10:28:23;;;;;;;;;;;;;;;;;;4909981;29;19995;-83
2023/05/14 10:30:49;;;;;;;;;;;;;;;;;;4909981;29;20057;-81
2023/05/14 10:33:17;;;;;;;;;;;;;;;;;;4908834;29;19923;-84
2023/05/14 10:36:02;;;;;;;;;;;;;;;;;;4903782;29;19990;-83
2023/05/14 10:38:28;;;;;;;;;;;;;;;;;;4926984;29;19951;-83
2023/05/14 10:41:04;;;;;;;;;;;;;;;;;;4903348;29;19923;-84
2023/05/14 10:43:30;;;;;;;;;;;;;;;;;;4905518;29;19956;-84
2023/05/14 10:45:56;;;;;;;;;;;;;;;;;;4903543;29;19952;-84
2023/05/14 10:48:21;;;;;;;;;;;;;;;;;;4907199;29;20380;-82
2023/05/14 10:50:48;;;;;;;;;;;;;;;;;;4907222;29;19927;-83
2023/05/14 10:53:14;;;;;;;;;;;;;;;;;;4908462;29;19934;-85
2023/05/14 10:55:41;;;;;;;;;;;;;;;;;;4910014;29;19928;-85
2023/05/14 10:58:06;;;;;;;;;;;;;;;;;;4907001;29;19931;-84
2023/05/14 11:00:33;;;;;;;;;;;;;;;;;;4870792;29;1252818;-83
2023/05/14 11:02:59;;;;;;;;;;;;;;;;;;4913848;29;19923;-85
2023/05/14 11:05:26;;;;;;;;;;;;;;;;;;4919190;29;19931;-85
2023/05/14 11:07:54;;;;;;;;;;;;;;;;;;4915080;29;19970;-85
2023/05/14 11:10:24;;;;;;;;;;;;;;;;;;4914445;29;19923;-83
2023/05/14 11:12:50;;;;;;;;;;;;;;;;;;4924619;29;19911;-83
2023/05/14 11:15:20;;;;;;;;;;;;;;;;;;4925191;29;20004;-84
2023/05/14 11:17:46;;;;;;;;;;;;;;;;;;4914018;29;19924;-83
2023/05/14 11:20:11;;;;;;;;;;;;;;;;;;4913970;29;19934;-83
2023/05/14 11:22:37;;;;;;;;;;;;;;;;;;4910175;29;19950;-82
2023/05/14 11:25:03;;;;;;;;;;;;;;;;;;4910155;29;19923;-82
2023/05/14 11:27:29;;;;;;;;;;;;;;;;;;4911319;29;19992;-83
2023/05/14 11:29:55;;;;;;;;;;;;;;;;;;4911204;29;19923;-82
2023/05/14 11:32:20;;;;;;;;;;;;;;;;;;4912528;29;19929;-82
2023/05/14 11:34:46;;;;;;;;;;;;;;;;;;4908938;29;19924;-81
2023/05/14 11:37:12;;;;;;;;;;;;;;;;;;4911978;29;20019;-83
2023/05/14 11:39:38;;;;;;;;;;;;;;;;;;4911521;29;19934;-82
2023/05/14 11:42:13;;;;;;;;;;;;;;;;;;4911530;29;19923;-84
2023/05/14 11:44:39;;;;;;;;;;;;;;;;;;4911950;29;19938;-83
2023/05/14 11:47:06;;;;;;;;;;;;;;;;;;4896154;29;20269;-83
2023/05/14 11:49:34;;;;;;;;;;;;;;;;;;4896288;29;20296;-83
2023/05/14 11:52:06;;;;;;;;;;;;;;;;;;4890505;29;20352;-81
2023/05/14 11:54:32;;;;;;;;;;;;;;;;;;4894842;29;19934;-81
2023/05/14 11:56:58;;;;;;;;;;;;;;;;;;4895078;29;19930;-82
2023/05/14 11:59:27;;;;;;;;;;;;;;;;;;4890204;29;19931;-81
2023/05/14 12:01:53;;;;;;;;;;;;;;;;;;4896041;29;20001;-82
2023/05/14 12:04:21;;;;;;;;;;;;;;;;;;4879221;29;20344;-85
2023/05/14 12:06:46;;;;;;;;;;;;;;;;;;4893991;29;19930;-84
2023/05/14 12:09:14;;;;;;;;;;;;;;;;;;4893991;29;19923;-83
2023/05/14 12:11:40;;;;;;;;;;;;;;;;;;4892274;29;20462;-84
2023/05/14 12:14:19;;;;;;;;;;;;;;;;;;4889045;29;19956;-83
2023/05/14 12:16:45;;;;;;;;;;;;;;;;;;4891122;29;19927;-84
2023/05/14 12:19:11;;;;;;;;;;;;;;;;;;4888048;29;19927;-82
2023/05/14 12:21:36;;;;;;;;;;;;;;;;;;4888355;29;20400;-85
2023/05/14 12:24:16;;;;;;;;;;;;;;;;;;4889411;29;20024;-83
2023/05/14 12:26:51;;;;;;;;;;;;;;;;;;4886593;29;20341;-81
2023/05/14 12:29:16;;;;;;;;;;;;;;;;;;4883490;29;19947;-84
2023/05/14 12:31:46;;;;;;;;;;;;;;;;;;4885983;29;19935;-83
2023/05/14 12:34:11;;;;;;;;;;;;;;;;;;4881390;29;20570;-85
2023/05/14 12:36:36;;;;;;;;;;;;;;;;;;4890302;29;20044;-83
2023/05/14 12:39:02;;;;;;;;;;;;;;;;;;4890745;29;20293;-82
2023/05/14 12:41:28;;;;;;;;;;;;;;;;;;4885302;29;19962;-83
2023/05/14 12:43:54;;;;;;;;;;;;;;;;;;4889796;29;20059;-85
2023/05/14 12:46:19;;;;;;;;;;;;;;;;;;4888835;29;20355;-84
2023/05/14 12:48:45;;;;;;;;;;;;;;;;;;4894277;29;19934;-85
2023/05/14 12:51:10;;;;;;;;;;;;;;;;;;4894618;29;19931;-83
2023/05/14 12:53:35;;;;;;;;;;;;;;;;;;4891838;29;19927;-84
2023/05/14 12:56:01;;;;;;;;;;;;;;;;;;4891210;29;19931;-82
2023/05/14 12:58:26;;;;;;;;;;;;;;;;;;4900339;29;19928;-82
2023/05/14 13:00:51;;;;;;;;;;;;;;;;;;4899347;29;19923;-83
2023/05/14 13:03:16;;;;;;;;;;;;;;;;;;4890433;29;20305;-83
2023/05/14 13:05:43;;;;;;;;;;;;;;;;;;4897448;29;20002;-83
2023/05/14 13:08:13;;;;;;;;;;;;;;;;;;4892898;29;20058;-82
2023/05/14 13:10:38;;;;;;;;;;;;;;;;;;4889592;29;20029;-82
2023/05/14 13:13:04;;;;;;;;;;;;;;;;;;4904503;29;20010;-83
2023/05/14 13:15:31;;;;;;;;;;;;;;;;;;4901184;29;19937;-85
2023/05/14 13:17:56;;;;;;;;;;;;;;;;;;4898520;29;19944;-83
2023/05/14 13:20:22;;;;;;;;;;;;;;;;;;4903273;29;20305;-84
2023/05/14 13:22:47;;;;;;;;;;;;;;;;;;4900316;29;19970;-84
2023/05/14 13:25:13;;;;;;;;;;;;;;;;;;4910703;29;19923;-83
2023/05/14 13:27:38;;;;;;;;;;;;;;;;;;4902887;29;19987;-84
2023/05/14 13:30:03;;;;;;;;;;;;;;;;;;4900995;29;19931;-79
2023/05/14 13:32:29;;;;;;;;;;;;;;;;;;4900614;29;19943;-84
2023/05/14 13:34:55;;;;;;;;;;;;;;;;;;4900989;29;19931;-88
2023/05/14 13:37:20;;;;;;;;;;;;;;;;;;4890202;29;19931;-82
2023/05/14 13:39:45;;;;;;;;;;;;;;;;;;4892076;29;20010;-84
2023/05/14 13:42:11;;;;;;;;;;;;;;;;;;4892268;29;19938;-88
2023/05/14 13:44:36;;;;;;;;;;;;;;;;;;4897643;29;19942;-90
2023/05/14 13:47:01;;;;;;;;;;;;;;;;;;4897750;29;20423;-84
2023/05/14 13:49:26;;;;;;;;;;;;;;;;;;4897460;29;19924;-83
2023/05/14 13:51:52;;;;;;;;;;;;;;;;;;4898268;29;19931;-89
2023/05/14 13:54:17;;;;;;;;;;;;;;;;;;4896405;29;20590;-83
2023/05/14 13:56:42;;;;;;;;;;;;;;;;;;4897762;29;19923;-87
2023/05/14 13:59:07;;;;;;;;;;;;;;;;;;4895578;29;20014;-81
2023/05/14 14:01:33;;;;;;;;;;;;;;;;;;4897304;29;19924;-81
2023/05/14 14:03:58;;;;;;;;;;;;;;;;;;4897586;29;19929;-86
2023/05/14 14:06:25;;;;;;;;;;;;;;;;;;4894132;29;19931;-79
2023/05/14 14:08:50;;;;;;;;;;;;;;;;;;4896566;29;20003;-83
2023/05/14 14:11:16;;;;;;;;;;;;;;;;;;4900126;29;19998;-81
2023/05/14 14:13:41;;;;;;;;;;;;;;;;;;4897574;29;20011;-83
2023/05/14 14:16:07;;;;;;;;;;;;;;;;;;4888458;29;19934;-83
2023/05/14 14:18:32;;;;;;;;;;;;;;;;;;4896943;29;19927;-84
2023/05/14 14:20:57;;;;;;;;;;;;;;;;;;4901205;29;19951;-84
2023/05/14 14:23:23;;;;;;;;;;;;;;;;;;4899462;29;20959;-83
2023/05/14 14:25:48;;;;;;;;;;;;;;;;;;4889986;29;19931;-83
2023/05/14 14:28:13;;;;;;;;;;;;;;;;;;4889085;29;20400;-84
2023/05/14 14:30:39;;;;;;;;;;;;;;;;;;4889438;29;20011;-83
2023/05/14 14:33:04;;;;;;;;;;;;;;;;;;4894210;29;19923;-82
2023/05/14 14:35:31;;;;;;;;;;;;;;;;;;4890412;29;19946;-83
2023/05/14 14:37:56;;;;;;;;;;;;;;;;;;4889870;29;19935;-84
2023/05/14 14:40:22;;;;;;;;;;;;;;;;;;4888972;29;19927;-84
2023/05/14 14:42:48;;;;;;;;;;;;;;;;;;4889723;29;19923;-84
2023/05/14 14:45:13;;;;;;;;;;;;;;;;;;4879295;29;20313;-84
2023/05/14 14:47:42;;;;;;;;;;;;;;;;;;4871204;29;20026;-84
2023/05/14 14:50:07;;;;;;;;;;;;;;;;;;4893688;29;19934;-84
2023/05/14 14:52:33;;;;;;;;;;;;;;;;;;4893011;29;19927;-83
2023/05/14 14:54:58;;;;;;;;;;;;;;;;;;4876182;29;20006;-83
2023/05/14 14:57:24;;;;;;;;;;;;;;;;;;4883590;29;19927;-80
2023/05/14 14:59:49;;;;;;;;;;;;;;;;;;4895657;29;19931;-81
2023/05/14 15:02:15;;;;;;;;;;;;;;;;;;4894093;29;19923;-81
2023/05/14 15:04:40;;;;;;;;;;;;;;;;;;4889357;29;19924;-81
2023/05/14 15:07:05;;;;;;;;;;;;;;;;;;4877026;29;20330;-85
2023/05/14 15:09:30;;;;;;;;;;;;;;;;;;4894455;29;19927;-86
2023/05/14 15:11:56;;;;;;;;;;;;;;;;;;4896369;29;19987;-84
2023/05/14 15:14:21;;;;;;;;;;;;;;;;;;4893997;29;19923;-86
2023/05/14 15:16:47;;;;;;;;;;;;;;;;;;4896050;29;19929;-85
2023/05/14 15:19:12;;;;;;;;;;;;;;;;;;4895394;29;20014;-86
2023/05/14 15:21:37;;;;;;;;;;;;;;;;;;4896075;29;20296;-84
2023/05/14 15:24:03;;;;;;;;;;;;;;;;;;4895537;29;19930;-87
2023/05/14 15:26:28;;;;;;;;;;;;;;;;;;4894311;29;19969;-86
2023/05/14 15:28:53;;;;;;;;;;;;;;;;;;4889575;29;19927;-83
2023/05/14 15:31:19;;;;;;;;;;;;;;;;;;4894046;29;20480;-84
2023/05/14 15:33:44;;;;;;;;;;;;;;;;;;4903518;29;19942;-84
2023/05/14 15:36:10;;;;;;;;;;;;;;;;;;4894997;29;19923;-85
2023/05/14 15:38:35;;;;;;;;;;;;;;;;;;4895793;29;19927;-83
2023/05/14 15:41:00;;;;;;;;;;;;;;;;;;4881966;29;20411;-84
2023/05/14 15:43:25;;;;;;;;;;;;;;;;;;4877846;29;19930;-83
2023/05/14 15:45:51;;;;;;;;;;;;;;;;;;4896406;29;19982;-84
2023/05/14 15:48:16;;;;;;;;;;;;;;;;;;4894985;29;20038;-84
2023/05/14 15:50:42;;;;;;;;;;;;;;;;;;4894662;29;20383;-84
2023/05/14 15:53:07;;;;;;;;;;;;;;;;;;4893957;29;20312;-83
2023/05/14 15:55:32;;;;;;;;;;;;;;;;;;4895379;29;20408;-83
2023/05/14 15:57:58;;;;;;;;;;;;;;;;;;4895664;29;19927;-85
2023/05/14 16:00:23;;;;;;;;;;;;;;;;;;4886445;29;19986;-85
2023/05/14 16:02:49;;;;;;;;;;;;;;;;;;4886988;29;20069;-84
2023/05/14 16:05:14;;;;;;;;;;;;;;;;;;4889549;29;19982;-83
2023/05/14 16:07:40;;;;;;;;;;;;;;;;;;4891621;29;19923;-85
2023/05/14 16:10:06;;;;;;;;;;;;;;;;;;4892056;29;19987;-85
2023/05/14 16:12:31;;;;;;;;;;;;;;;;;;4884649;29;19974;-85
2023/05/14 16:14:56;;;;;;;;;;;;;;;;;;4892279;29;19919;-83
2023/05/14 16:17:22;;;;;;;;;;;;;;;;;;4892182;29;20006;-85
2023/05/14 16:19:47;;;;;;;;;;;;;;;;;;4891975;29;19923;-84
2023/05/14 16:22:12;;;;;;;;;;;;;;;;;;4891580;29;19935;-86
2023/05/14 16:24:38;;;;;;;;;;;;;;;;;;4892501;29;19962;-85
2023/05/14 16:27:03;;;;;;;;;;;;;;;;;;4891120;29;19931;-87
2023/05/14 16:29:28;;;;;;;;;;;;;;;;;;4893196;29;19927;-85
2023/05/14 16:31:53;;;;;;;;;;;;;;;;;;4899892;29;19927;-85
2023/05/14 16:34:19;;;;;;;;;;;;;;;;;;4893272;29;20162;-86
2023/05/14 16:36:44;;;;;;;;;;;;;;;;;;4891794;29;19934;-86
2023/05/14 16:39:10;;;;;;;;;;;;;;;;;;4886800;29;19931;-87
2023/05/14 16:41:35;;;;;;;;;;;;;;;;;;4891442;29;20010;-85
2023/05/14 16:44:01;;;;;;;;;;;;;;;;;;4891910;29;20014;-82
2023/05/14 16:46:28;;;;;;;;;;;;;;;;;;4891255;29;19923;-83
2023/05/14 16:48:53;;;;;;;;;;;;;;;;;;4891866;29;19935;-83
2023/05/14 16:51:18;;;;;;;;;;;;;;;;;;4891358;29;19931;-84
2023/05/14 16:53:44;;;;;;;;;;;;;;;;;;4891910;29;20361;-84
2023/05/14 16:56:09;;;;;;;;;;;;;;;;;;4891228;29;19927;-85
2023/05/14 16:58:35;;;;;;;;;;;;;;;;;;4891479;29;19927;-85
2023/05/14 17:01:00;;;;;;;;;;;;;;;;;;4889831;29;20027;-82
2023/05/14 17:03:25;;;;;;;;;;;;;;;;;;4887007;29;19923;-84
2023/05/14 17:05:51;;;;;;;;;;;;;;;;;;4879627;29;20364;-82
2023/05/14 17:08:16;;;;;;;;;;;;;;;;;;4888655;29;19924;-82
2023/05/14 17:10:41;;;;;;;;;;;;;;;;;;4890044;29;19931;-82
2023/05/14 17:13:06;;;;;;;;;;;;;;;;;;4892325;29;20010;-82
2023/05/14 17:15:32;;;;;;;;;;;;;;;;;;4890863;29;19927;-83
2023/05/14 17:17:57;;;;;;;;;;;;;;;;;;4889811;29;19937;-84
2023/05/14 17:20:22;;;;;;;;;;;;;;;;;;4890007;29;20045;-80
2023/05/14 17:22:48;;;;;;;;;;;;;;;;;;4890442;29;19927;-83
2023/05/14 17:25:13;;;;;;;;;;;;;;;;;;4888974;29;20785;-81
2023/05/14 17:27:39;;;;;;;;;;;;;;;;;;4890955;29;19957;-81
2023/05/14 17:30:05;;;;;;;;;;;;;;;;;;4891819;29;19931;-82
2023/05/14 17:32:30;;;;;;;;;;;;;;;;;;4884741;29;19946;-83
2023/05/14 17:34:55;;;;;;;;;;;;;;;;;;4879442;29;19924;-82
2023/05/14 17:37:21;;;;;;;;;;;;;;;;;;4889865;29;19975;-81
2023/05/14 17:39:47;;;;;;;;;;;;;;;;;;4890115;29;20021;-82
2023/05/14 17:42:12;;;;;;;;;;;;;;;;;;4889468;29;19987;-86
2023/05/14 17:44:37;;;;;;;;;;;;;;;;;;4890254;29;20400;-82
2023/05/14 17:47:03;;;;;;;;;;;;;;;;;;4889916;29;19978;-81
2023/05/14 17:49:29;;;;;;;;;;;;;;;;;;4889863;29;20415;-80
2023/05/14 17:51:55;;;;;;;;;;;;;;;;;;4887885;29;19927;-83
2023/05/14 17:54:20;;;;;;;;;;;;;;;;;;4889616;29;20469;-80
2023/05/14 17:56:46;;;;;;;;;;;;;;;;;;4884894;29;19923;-81
2023/05/14 17:59:12;;;;;;;;;;;;;;;;;;4881835;29;20031;-81
2023/05/14 18:01:37;;;;;;;;;;;;;;;;;;4887054;29;20013;-82
2023/05/14 18:04:02;;;;;;;;;;;;;;;;;;4890285;29;19974;-82
2023/05/14 18:06:28;;;;;;;;;;;;;;;;;;4890027;29;19938;-82
2023/05/14 18:08:53;;;;;;;;;;;;;;;;;;4890647;29;20337;-81
2023/05/14 18:11:18;;;;;;;;;;;;;;;;;;4899907;29;19927;-83
2023/05/14 18:13:44;;;;;;;;;;;;;;;;;;4902453;29;19934;-83
2023/05/14 18:16:09;;;;;;;;;;;;;;;;;;4895504;29;20356;-82
2023/05/14 18:18:35;;;;;;;;;;;;;;;;;;4891814;29;19975;-84
2023/05/14 18:21:00;;;;;;;;;;;;;;;;;;4891353;29;19954;-81
2023/05/14 18:23:26;;;;;;;;;;;;;;;;;;4889215;29;19931;-84
2023/05/14 18:25:51;;;;;;;;;;;;;;;;;;4888825;29;19987;-83
2023/05/14 18:28:17;;;;;;;;;;;;;;;;;;4888075;29;20257;-84
2023/05/14 18:30:44;;;;;;;;;;;;;;;;;;4886425;29;19980;-84
2023/05/14 18:33:09;;;;;;;;;;;;;;;;;;4889616;29;20116;-83
2023/05/14 18:35:34;;;;;;;;;;;;;;;;;;4889987;29;20014;-83
2023/05/14 18:38:01;;;;;;;;;;;;;;;;;;4889471;29;19931;-83
2023/05/14 18:40:26;;;;;;;;;;;;;;;;;;4888206;29;20207;-83
2023/05/14 18:42:52;;;;;;;;;;;;;;;;;;4887925;29;20392;-83
2023/05/14 18:45:17;;;;;;;;;;;;;;;;;;4888917;29;19923;-85
2023/05/14 18:47:42;;;;;;;;;;;;;;;;;;4889428;29;20976;-82
2023/05/14 18:50:08;;;;;;;;;;;;;;;;;;4889676;29;19927;-83
2023/05/14 18:52:33;;;;;;;;;;;;;;;;;;4887405;29;19931;-84
2023/05/14 18:54:58;;;;;;;;;;;;;;;;;;4880255;29;19927;-83
2023/05/14 18:57:25;;;;;;;;;;;;;;;;;;4888079;29;20022;-83
2023/05/14 18:59:51;;;;;;;;;;;;;;;;;;4883952;29;19927;-81
2023/05/14 19:02:16;;;;;;;;;;;;;;;;;;4887312;29;19927;-82
2023/05/14 19:04:41;;;;;;;;;;;;;;;;;;4888876;29;19923;-83
2023/05/14 19:07:07;;;;;;;;;;;;;;;;;;4888957;29;19932;-83
2023/05/14 19:09:32;;;;;;;;;;;;;;;;;;4889447;29;19931;-83
2023/05/14 19:11:57;;;;;;;;;;;;;;;;;;4890465;29;20407;-82
2023/05/14 19:14:22;;;;;;;;;;;;;;;;;;4885537;29;19932;-81
2023/05/14 19:16:48;;;;;;;;;;;;;;;;;;4885134;29;20494;-82
2023/05/14 19:19:13;;;;;;;;;;;;;;;;;;4887936;29;19934;-83
2023/05/14 19:21:39;;;;;;;;;;;;;;;;;;4891407;29;19923;-81
2023/05/14 19:24:04;;;;;;;;;;;;;;;;;;4889971;29;19932;-83
2023/05/14 19:26:29;;;;;;;;;;;;;;;;;;4888766;29;19931;-83
2023/05/14 19:28:57;;;;;;;;;;;;;;;;;;4878360;29;20375;-81
2023/05/14 19:31:23;;;;;;;;;;;;;;;;;;4887847;29;19931;-84
2023/05/14 19:33:48;;;;;;;;;;;;;;;;;;4883874;29;19990;-85
2023/05/14 19:36:13;;;;;;;;;;;;;;;;;;4886873;29;19927;-84
2023/05/14 19:38:39;;;;;;;;;;;;;;;;;;4879342;29;20672;-83
2023/05/14 19:41:04;;;;;;;;;;;;;;;;;;4890754;29;19920;-83
2023/05/14 19:43:29;;;;;;;;;;;;;;;;;;4892243;29;20440;-83
2023/05/14 19:45:55;;;;;;;;;;;;;;;;;;4891924;29;19927;-84
2023/05/14 19:48:20;;;;;;;;;;;;;;;;;;4890565;29;20663;-84
2023/05/14 19:50:46;;;;;;;;;;;;;;;;;;4891040;29;20561;-84
2023/05/14 19:53:11;;;;;;;;;;;;;;;;;;4891567;29;19927;-82
2023/05/14 19:55:36;;;;;;;;;;;;;;;;;;4892123;29;19975;-84
2023/05/14 19:58:02;;;;;;;;;;;;;;;;;;4892426;29;20360;-83
2023/05/14 20:00:27;;;;;;;;;;;;;;;;;;4892404;29;20459;-84
2023/05/14 20:02:53;;;;;;;;;;;;;;;;;;4892472;29;19934;-84
2023/05/14 20:05:18;;;;;;;;;;;;;;;;;;4891699;29;20373;-83
2023/05/14 20:07:45;;;;;;;;;;;;;;;;;;4892695;29;19942;-83
2023/05/14 20:10:11;;;;;;;;;;;;;;;;;;4887870;29;20429;-82
2023/05/14 20:12:36;;;;;;;;;;;;;;;;;;4894782;29;20014;-84
2023/05/14 20:15:01;;;;;;;;;;;;;;;;;;4891654;29;20448;-83
2023/05/14 20:17:26;;;;;;;;;;;;;;;;;;4891767;29;19923;-83
2023/05/14 20:19:52;;;;;;;;;;;;;;;;;;4891823;29;20512;-85
2023/05/14 20:22:17;;;;;;;;;;;;;;;;;;4891580;29;19939;-84
2023/05/14 20:24:43;;;;;;;;;;;;;;;;;;4892454;29;20320;-84
2023/05/14 20:27:08;;;;;;;;;;;;;;;;;;4890527;29;19986;-85
2023/05/14 20:29:33;;;;;;;;;;;;;;;;;;4890443;29;20409;-83
2023/05/14 20:31:59;;;;;;;;;;;;;;;;;;4892599;29;20404;-85
2023/05/14 20:34:24;;;;;;;;;;;;;;;;;;4891885;29;20466;-84
2023/05/14 20:36:49;;;;;;;;;;;;;;;;;;4891001;29;20509;-85
2023/05/14 20:39:17;;;;;;;;;;;;;;;;;;4889971;29;19935;-85
2023/05/14 20:41:44;;;;;;;;;;;;;;;;;;4881291;29;19924;-83
2023/05/14 20:44:09;;;;;;;;;;;;;;;;;;4877702;29;19982;-85
2023/05/14 20:46:34;;;;;;;;;;;;;;;;;;4878113;29;20382;-83
2023/05/14 20:49:00;;;;;;;;;;;;;;;;;;4879574;29;19924;-84
2023/05/14 20:51:26;;;;;;;;;;;;;;;;;;4878092;29;20400;-85
2023/05/14 20:53:51;;;;;;;;;;;;;;;;;;4879470;29;19924;-83
2023/05/14 20:56:16;;;;;;;;;;;;;;;;;;4879221;29;20042;-86
2023/05/14 20:58:41;;;;;;;;;;;;;;;;;;4879920;29;20384;-83
2023/05/14 21:01:08;;;;;;;;;;;;;;;;;;4877906;29;19995;-84
2023/05/14 21:03:33;;;;;;;;;;;;;;;;;;4879597;29;19947;-84
2023/05/14 21:05:59;;;;;;;;;;;;;;;;;;4880109;29;20417;-85
2023/05/14 21:08:25;;;;;;;;;;;;;;;;;;4879546;29;19988;-85
2023/05/14 21:10:50;;;;;;;;;;;;;;;;;;4878786;29;20306;-85
2023/05/14 21:13:15;;;;;;;;;;;;;;;;;;4903076;29;19931;-85
2023/05/14 21:15:41;;;;;;;;;;;;;;;;;;4916843;29;20344;-85
2023/05/14 21:18:06;;;;;;;;;;;;;;;;;;4916981;29;19923;-85
2023/05/14 21:20:31;;;;;;;;;;;;;;;;;;4916736;29;20042;-85
2023/05/14 21:22:57;;;;;;;;;;;;;;;;;;4915380;29;20010;-85
2023/05/14 21:25:22;;;;;;;;;;;;;;;;;;4916378;29;19923;-85
2023/05/14 21:27:47;;;;;;;;;;;;;;;;;;4916581;29;19931;-86
2023/05/14 21:30:13;;;;;;;;;;;;;;;;;;4907769;29;20404;-86
2023/05/14 21:32:38;;;;;;;;;;;;;;;;;;4907157;29;20013;-86
2023/05/14 21:35:04;;;;;;;;;;;;;;;;;;4916436;29;19946;-84
2023/05/14 21:37:29;;;;;;;;;;;;;;;;;;4916251;29;19930;-86
2023/05/14 21:39:54;;;;;;;;;;;;;;;;;;4915245;29;19930;-85
2023/05/14 21:42:19;;;;;;;;;;;;;;;;;;4915132;29;20175;-85
2023/05/14 21:44:45;;;;;;;;;;;;;;;;;;4916273;29;19930;-85
2023/05/14 21:47:10;;;;;;;;;;;;;;;;;;4916413;29;19931;-83
2023/05/14 21:49:36;;;;;;;;;;;;;;;;;;4914886;29;19934;-85
2023/05/14 21:52:01;;;;;;;;;;;;;;;;;;4916537;29;20026;-84
2023/05/14 21:54:26;;;;;;;;;;;;;;;;;;4915825;29;19923;-85
2023/05/14 21:56:52;;;;;;;;;;;;;;;;;;4916436;29;19923;-85
2023/05/14 21:59:17;;;;;;;;;;;;;;;;;;4916106;29;19987;-84
2023/05/14 22:01:42;;;;;;;;;;;;;;;;;;4901976;29;19982;-85
2023/05/14 22:04:07;;;;;;;;;;;;;;;;;;4877784;29;19924;-83
2023/05/14 22:06:33;;;;;;;;;;;;;;;;;;4879024;29;19931;-84
2023/05/14 22:08:58;;;;;;;;;;;;;;;;;;4877214;29;20457;-84
2023/05/14 22:11:23;;;;;;;;;;;;;;;;;;4876822;29;19924;-84
2023/05/14 22:13:48;;;;;;;;;;;;;;;;;;4894965;29;19930;-85
2023/05/14 22:16:14;;;;;;;;;;;;;;;;;;4896662;29;19926;-86
2023/05/14 22:18:39;;;;;;;;;;;;;;;;;;4897677;29;20007;-84
2023/05/14 22:21:04;;;;;;;;;;;;;;;;;;4897272;29;19933;-84
2023/05/14 22:23:30;;;;;;;;;;;;;;;;;;4897556;29;19924;-84
2023/05/14 22:25:55;;;;;;;;;;;;;;;;;;4897134;29;20320;-84
2023/05/14 22:28:21;;;;;;;;;;;;;;;;;;4896738;29;19923;-84
2023/05/14 22:30:46;;;;;;;;;;;;;;;;;;4897237;29;20385;-84
2023/05/14 22:33:11;;;;;;;;;;;;;;;;;;4910304;29;19923;-84
2023/05/14 22:35:37;;;;;;;;;;;;;;;;;;4916728;29;20006;-83